Time;durP1;ratioP1;P1;durP2;ratioP2;P2;SDS_P1;SDS_P2;PMS_P1;PMS_P2;Temp;Humidity;BMP_temperature;BMP_pressure;BME280_temperature;BME280_humidity;BME280_pressure;Samples;Min_cycle;Max_cycle;Signal;HPM_P1;HPM_P2
2022/01/01 00:03:22;;;;;;;30.60;27.50;;;;;;;;;;12498676;28;20391;-72
2022/01/01 00:09:24;;;;;;;28.55;25.65;;;;;;;;;;12499670;28;20049;-71
2022/01/01 00:15:25;;;;;;;18.88;16.95;;;;;;;;;;12498388;28;20391;-71
2022/01/01 00:21:27;;;;;;;21.13;19.10;;;;;;;;;;12499182;28;20498;-71
2022/01/01 00:27:29;;;;;;;20.73;18.40;;;;;;;;;;12498996;28;20038;-72
2022/01/01 00:33:30;;;;;;;20.90;18.83;;;;;;;;;;12498503;28;20048;-72
2022/01/01 00:39:32;;;;;;;21.15;19.08;;;;;;;;;;12499116;28;20387;-72
2022/01/01 00:45:34;;;;;;;20.58;18.40;;;;;;;;;;12496955;28;20049;-72
2022/01/01 00:51:35;;;;;;;20.23;18.13;;;;;;;;;;12497969;28;20045;-71
2022/01/01 00:57:37;;;;;;;25.08;22.58;;;;;;;;;;12497549;28;20040;-72
2022/01/01 01:03:40;;;;;;;19.20;17.30;;;;;;;;;;12497364;28;20040;-71
2022/01/01 01:09:41;;;;;;;24.73;22.13;;;;;;;;;;12495640;28;20045;-72
2022/01/01 01:15:43;;;;;;;20.27;18.23;;;;;;;;;;12478398;28;20036;-72
2022/01/01 01:21:45;;;;;;;21.90;19.77;;;;;;;;;;12496580;28;20096;-72
2022/01/01 01:27:49;;;;;;;19.43;17.27;;;;;;;;;;12496381;28;20032;-72
2022/01/01 01:33:51;;;;;;;27.13;24.17;;;;;;;;;;12494599;28;20045;-72
2022/01/01 01:39:53;;;;;;;19.40;17.30;;;;;;;;;;12495356;28;20041;-72
2022/01/01 01:45:55;;;;;;;20.92;19.02;;;;;;;;;;12495570;28;20037;-72
2022/01/01 01:51:57;;;;;;;13.93;12.52;;;;;;;;;;12495234;28;20053;-72
2022/01/01 01:57:59;;;;;;;16.00;13.50;;;;;;;;;;12493608;28;20390;-72
2022/01/01 02:04:01;;;;;;;29.20;19.02;;;;;;;;;;12493739;28;20494;-72
2022/01/01 02:10:03;;;;;;;15.30;13.85;;;;;;;;;;12494600;28;20399;-72
2022/01/01 02:16:38;;;;;;;24.88;16.48;;;;;;;;;;12493121;28;20463;-73
2022/01/01 02:22:40;;;;;;;23.25;16.00;;;;;;;;;;12492568;28;20038;-72
2022/01/01 02:28:43;;;;;;;17.73;13.68;;;;;;;;;;12502835;28;20037;-72
2022/01/01 02:34:44;;;;;;;14.90;13.55;;;;;;;;;;12503164;28;20041;-72
2022/01/01 02:40:46;;;;;;;20.38;18.50;;;;;;;;;;12487377;28;20394;-72
2022/01/01 02:46:48;;;;;;;17.23;13.60;;;;;;;;;;12503791;28;20045;-72
2022/01/01 02:52:51;;;;;;;16.57;15.07;;;;;;;;;;12503558;28;20046;-73
2022/01/01 02:58:53;;;;;;;18.63;16.83;;;;;;;;;;12502178;28;20033;-72
2022/01/01 03:04:55;;;;;;;21.40;19.23;;;;;;;;;;12503654;28;20029;-73
2022/01/01 03:10:56;;;;;;;24.77;20.95;;;;;;;;;;12502702;28;20148;-72
2022/01/01 03:16:58;;;;;;;23.80;21.20;;;;;;;;;;12502464;28;20034;-72
2022/01/01 03:23:00;;;;;;;12.05;10.85;;;;;;;;;;12500613;28;20033;-72
2022/01/01 03:29:01;;;;;;;24.40;17.67;;;;;;;;;;12501728;28;20025;-72
2022/01/01 03:35:03;;;;;;;19.88;16.65;;;;;;;;;;12501327;28;20513;-72
2022/01/01 03:41:05;;;;;;;21.13;17.80;;;;;;;;;;12501432;28;20080;-72
2022/01/01 03:47:09;;;;;;;12.48;11.25;;;;;;;;;;12501054;28;20403;-72
2022/01/01 03:53:11;;;;;;;18.45;16.55;;;;;;;;;;12500753;28;20050;-72
2022/01/01 03:59:14;;;;;;;20.33;17.90;;;;;;;;;;12500509;28;20030;-72
2022/01/01 04:05:15;;;;;;;26.00;22.00;;;;;;;;;;12501091;28;20030;-72
2022/01/01 04:11:17;;;;;;;39.90;25.58;;;;;;;;;;12498835;28;20061;-72
2022/01/01 04:17:19;;;;;;;24.70;18.88;;;;;;;;;;12499568;28;20029;-72
2022/01/01 04:23:23;;;;;;;19.20;16.35;;;;;;;;;;12499377;28;20041;-72
2022/01/01 04:29:25;;;;;;;17.27;14.75;;;;;;;;;;12498994;28;20049;-72
2022/01/01 04:35:27;;;;;;;13.57;12.18;;;;;;;;;;12498812;28;20052;-72
2022/01/01 04:41:28;;;;;;;18.70;15.27;;;;;;;;;;12499583;28;20474;-72
2022/01/01 04:47:30;;;;;;;16.67;13.15;;;;;;;;;;12497571;28;20029;-72
2022/01/01 04:53:32;;;;;;;19.50;13.75;;;;;;;;;;12497481;28;20046;-73
2022/01/01 04:59:34;;;;;;;20.88;16.73;;;;;;;;;;12497505;28;20037;-73
2022/01/01 05:05:36;;;;;;;28.45;22.23;;;;;;;;;;12496108;28;20426;-73
2022/01/01 05:11:38;;;;;;;34.30;24.80;;;;;;;;;;12495934;28;20053;-72
2022/01/01 05:17:39;;;;;;;15.05;13.45;;;;;;;;;;12495687;28;20391;-72
2022/01/01 05:23:41;;;;;;;18.17;14.82;;;;;;;;;;12496534;28;20494;-72
2022/01/01 05:29:43;;;;;;;19.08;15.63;;;;;;;;;;12496049;28;20045;-72
2022/01/01 05:35:44;;;;;;;18.95;15.40;;;;;;;;;;12495037;28;20041;-72
2022/01/01 05:41:46;;;;;;;14.00;12.43;;;;;;;;;;12495171;28;20060;-72
2022/01/01 05:47:48;;;;;;;74.85;33.15;;;;;;;;;;12477678;28;20038;-72
2022/01/01 05:53:50;;;;;;;14.98;13.27;;;;;;;;;;12495196;28;20045;-73
2022/01/01 05:59:51;;;;;;;14.70;13.20;;;;;;;;;;12494940;28;20037;-73
2022/01/01 06:05:53;;;;;;;57.85;29.55;;;;;;;;;;12495026;28;20053;-72
2022/01/01 06:11:54;;;;;;;16.65;14.45;;;;;;;;;;12494840;28;20053;-72
2022/01/01 06:17:57;;;;;;;21.23;15.60;;;;;;;;;;12495459;28;20046;-72
2022/01/01 06:23:59;;;;;;;15.77;14.00;;;;;;;;;;12494661;28;20030;-72
2022/01/01 06:30:01;;;;;;;12.45;11.23;;;;;;;;;;12494366;28;20056;-72
2022/01/01 06:36:03;;;;;;;12.57;11.32;;;;;;;;;;12494311;28;20041;-72
2022/01/01 06:42:04;;;;;;;16.27;14.27;;;;;;;;;;12495238;28;20398;-73
2022/01/01 06:48:06;;;;;;;12.95;11.65;;;;;;;;;;12493912;28;20048;-73
2022/01/01 06:54:08;;;;;;;17.40;14.93;;;;;;;;;;12494322;28;20041;-71
2022/01/01 07:00:10;;;;;;;20.65;16.67;;;;;;;;;;12493652;28;20034;-71
2022/01/01 07:06:12;;;;;;;15.07;13.32;;;;;;;;;;12493388;28;20033;-71
2022/01/01 07:12:13;;;;;;;20.77;15.50;;;;;;;;;;12495535;28;20049;-71
2022/01/01 07:18:15;;;;;;;16.27;13.50;;;;;;;;;;12501595;28;20037;-71
2022/01/01 07:24:17;;;;;;;45.65;26.27;;;;;;;;;;12484376;28;20041;-72
2022/01/01 07:30:19;;;;;;;20.38;16.98;;;;;;;;;;12501824;28;20033;-71
2022/01/01 07:36:20;;;;;;;17.50;14.20;;;;;;;;;;12500719;28;20585;-71
2022/01/01 07:42:22;;;;;;;12.80;11.45;;;;;;;;;;12484100;28;20029;-73
2022/01/01 07:48:24;;;;;;;19.30;16.77;;;;;;;;;;12499675;28;20479;-71
2022/01/01 07:54:25;;;;;;;19.83;14.73;;;;;;;;;;12499037;28;20049;-71
2022/01/01 08:00:27;;;;;;;40.13;23.67;;;;;;;;;;12500103;28;20029;-72
2022/01/01 08:06:30;;;;;;;23.27;19.90;;;;;;;;;;12500090;28;20044;-72
2022/01/01 08:12:31;;;;;;;20.00;16.80;;;;;;;;;;12498662;28;20076;-72
2022/01/01 08:18:33;;;;;;;31.60;23.73;;;;;;;;;;12499437;28;20044;-72
2022/01/01 08:24:35;;;;;;;67.18;35.72;;;;;;;;;;12497971;28;20037;-71
2022/01/01 08:30:37;;;;;;;24.27;20.15;;;;;;;;;;12498729;28;20311;-72
2022/01/01 08:36:38;;;;;;;33.78;25.42;;;;;;;;;;12498652;28;20097;-71
2022/01/01 08:42:40;;;;;;;65.50;34.45;;;;;;;;;;12499651;28;20030;-71
2022/01/01 08:48:42;;;;;;;26.15;22.23;;;;;;;;;;12481109;28;20501;-71
2022/01/01 08:58:43;;;;;;;22.30;18.40;;;;;;;;;;12587364;28;20496;-71
2022/01/01 09:04:45;;;;;;;32.60;24.35;;;;;;;;;;12587074;28;20039;-71
2022/01/01 09:10:47;;;;;;;26.53;22.07;;;;;;;;;;12586920;28;20036;-71
2022/01/01 09:16:49;;;;;;;23.27;19.23;;;;;;;;;;12586303;28;20044;-72
2022/01/01 09:22:51;;;;;;;17.23;13.73;;;;;;;;;;12584807;28;20040;-72
2022/01/01 09:28:52;;;;;;;17.42;15.63;;;;;;;;;;12584701;28;20028;-73
2022/01/01 09:34:55;;;;;;;23.02;18.73;;;;;;;;;;12584703;28;20065;-72
2022/01/01 09:40:58;;;;;;;21.23;19.05;;;;;;;;;;12583882;28;20477;-73
2022/01/01 09:46:59;;;;;;;18.55;16.52;;;;;;;;;;12584686;28;20051;-72
2022/01/01 09:53:01;;;;;;;19.50;17.70;;;;;;;;;;12566230;28;20068;-72
2022/01/01 09:59:03;;;;;;;17.40;15.73;;;;;;;;;;12584169;28;20043;-72
2022/01/01 10:05:06;;;;;;;13.82;12.52;;;;;;;;;;12577324;28;20032;-72
2022/01/01 10:11:08;;;;;;;17.63;15.82;;;;;;;;;;12550953;28;20061;-71
2022/01/01 10:17:20;;;;;;;20.42;18.67;;;;;;;;;;12550605;28;20056;-72
2022/01/01 10:23:26;;;;;;;17.52;16.02;;;;;;;;;;12550431;28;20044;-72
2022/01/01 10:29:31;;;;;;;19.92;18.13;;;;;;;;;;12548768;28;20033;-72
2022/01/01 10:35:36;;;;;;;21.10;19.20;;;;;;;;;;12549397;28;20052;-73
2022/01/01 10:41:48;;;;;;;20.27;18.38;;;;;;;;;;12549457;28;20037;-72
2022/01/01 10:48:04;;;;;;;22.23;20.23;;;;;;;;;;12549466;28;20060;-72
2022/01/01 10:54:08;;;;;;;23.85;21.52;;;;;;;;;;12549262;28;20049;-72
2022/01/01 11:00:12;;;;;;;24.00;21.75;;;;;;;;;;12548587;28;20056;-72
2022/01/01 11:06:17;;;;;;;20.40;18.55;;;;;;;;;;12530382;28;20041;-72
2022/01/01 11:12:21;;;;;;;19.02;17.27;;;;;;;;;;12549296;28;20386;-73
2022/01/01 11:18:24;;;;;;;21.52;19.45;;;;;;;;;;12545286;28;20478;-72
2022/01/01 11:24:27;;;;;;;22.08;20.17;;;;;;;;;;12530061;28;20044;-74
2022/01/01 11:30:30;;;;;;;34.43;31.10;;;;;;;;;;12545890;28;20043;-73
2022/01/01 11:36:34;;;;;;;25.30;22.90;;;;;;;;;;12546811;28;20049;-72
2022/01/01 11:42:44;;;;;;;26.83;24.15;;;;;;;;;;12529214;28;20479;-73
2022/01/01 11:48:57;;;;;;;23.63;21.42;;;;;;;;;;12544857;28;20033;-72
2022/01/01 11:55:00;;;;;;;28.23;25.58;;;;;;;;;;12544835;28;20156;-72
2022/01/01 12:01:10;;;;;;;21.42;19.42;;;;;;;;;;12546127;28;20044;-73
2022/01/01 12:07:14;;;;;;;19.05;17.25;;;;;;;;;;12544482;28;20040;-72
2022/01/01 12:13:16;;;;;;;23.38;20.98;;;;;;;;;;12545314;28;20032;-72
2022/01/01 12:19:20;;;;;;;19.40;17.67;;;;;;;;;;12544631;28;20359;-72
2022/01/01 12:25:23;;;;;;;20.20;18.30;;;;;;;;;;12544058;28;20040;-72
2022/01/01 12:31:25;;;;;;;18.30;16.67;;;;;;;;;;12544376;28;20055;-72
2022/01/01 12:37:35;;;;;;;16.77;15.15;;;;;;;;;;12544372;28;20036;-72
2022/01/01 12:43:49;;;;;;;18.65;16.92;;;;;;;;;;12544171;28;20032;-73
2022/01/01 12:49:50;;;;;;;25.50;23.08;;;;;;;;;;12526253;28;20029;-72
2022/01/01 12:56:07;;;;;;;22.83;20.73;;;;;;;;;;12543944;28;20080;-73
2022/01/01 13:02:09;;;;;;;25.48;23.05;;;;;;;;;;12542549;28;20041;-72
2022/01/01 13:08:11;;;;;;;24.10;21.77;;;;;;;;;;12543104;28;20091;-73
2022/01/01 13:14:15;;;;;;;23.95;21.67;;;;;;;;;;12541942;28;20045;-71
2022/01/01 13:20:17;;;;;;;23.30;21.10;;;;;;;;;;12542267;28;20037;-73
2022/01/01 13:26:20;;;;;;;;;;;;;;;;;;12542677;28;20029;-72
2022/01/01 13:32:21;;;;;;;24.05;21.85;;;;;;;;;;12541527;28;19908;-72
2022/01/01 13:38:24;;;;;;;30.77;27.67;;;;;;;;;;12524795;28;20041;-74
2022/01/01 13:44:26;;;;;;;25.75;23.25;;;;;;;;;;12550457;28;20414;-73
2022/01/01 13:50:28;;;;;;;29.30;26.50;;;;;;;;;;12550794;28;20029;-72
2022/01/01 13:56:30;;;;;;;22.83;20.73;;;;;;;;;;12549986;28;20068;-73
2022/01/01 14:02:32;;;;;;;23.80;21.53;;;;;;;;;;12550306;28;20029;-73
2022/01/01 14:08:34;;;;;;;19.63;17.80;;;;;;;;;;12533718;28;20509;-72
2022/01/01 14:14:36;;;;;;;20.93;19.00;;;;;;;;;;12533246;28;20041;-72
2022/01/01 14:20:43;;;;;;;17.80;16.02;;;;;;;;;;12549589;28;20040;-73
2022/01/01 14:26:46;;;;;;;29.42;26.38;;;;;;;;;;12551562;28;20048;-73
2022/01/01 14:32:48;;;;;;;;;;;;;;;;;;12550925;28;20044;-72
2022/01/01 14:38:51;;;;;;;15.50;14.00;;;;;;;;;;12549125;28;20374;-73
2022/01/01 14:44:52;;;;;;;;;;;;;;;;;;12533013;28;20037;-74
2022/01/01 14:50:57;;;;;;;27.30;24.50;;;;;;;;;;12549531;28;19909;-73
2022/01/01 14:57:18;;;;;;;22.88;20.60;;;;;;;;;;12548003;28;20053;-72
2022/01/01 15:03:20;;;;;;;24.90;22.40;;;;;;;;;;12548997;28;20036;-72
2022/01/01 15:09:23;;;;;;;25.80;23.20;;;;;;;;;;12547272;28;20032;-74
2022/01/01 15:15:25;;;;;;;23.67;21.17;;;;;;;;;;12530366;28;20045;-73
2022/01/01 15:21:38;;;;;;;22.17;19.88;;;;;;;;;;12530065;28;20033;-73
2022/01/01 15:27:43;;;;;;;23.58;21.05;;;;;;;;;;12546946;28;20049;-73
2022/01/01 15:33:45;;;;;;;26.95;24.08;;;;;;;;;;12546958;28;20514;-72
2022/01/01 15:39:48;;;;;;;22.15;19.90;;;;;;;;;;12547000;28;20386;-73
2022/01/01 15:45:51;;;;;;;22.75;20.15;;;;;;;;;;12545475;28;20036;-73
2022/01/01 15:51:53;;;;;;;24.27;18.65;;;;;;;;;;12545150;28;20048;-73
2022/01/01 15:57:55;;;;;;;23.50;21.30;;;;;;;;;;12544488;28;20072;-72
2022/01/01 16:04:06;;;;;;;26.08;23.38;;;;;;;;;;12527873;28;20033;-72
2022/01/01 16:10:08;;;;;;;24.48;22.15;;;;;;;;;;12528263;28;20352;-74
2022/01/01 16:16:10;;;;;;;33.58;25.85;;;;;;;;;;12544311;28;20052;-74
2022/01/01 16:22:12;;;;;;;23.08;20.65;;;;;;;;;;12544608;28;20040;-73
2022/01/01 16:28:15;;;;;;;21.65;19.40;;;;;;;;;;12546374;28;20041;-73
2022/01/01 16:34:21;;;;;;;24.48;21.65;;;;;;;;;;12544638;28;20044;-72
2022/01/01 16:40:23;;;;;;;19.27;17.38;;;;;;;;;;12543560;28;20039;-73
2022/01/01 16:46:32;;;;;;;25.17;22.10;;;;;;;;;;12526743;28;20033;-72
2022/01/01 16:52:34;;;;;;;21.67;19.48;;;;;;;;;;12544220;28;20041;-74
2022/01/01 16:58:41;;;;;;;22.95;20.67;;;;;;;;;;12526112;28;20060;-73
2022/01/01 17:04:54;;;;;;;21.10;19.00;;;;;;;;;;12543891;28;20036;-74
2022/01/01 17:10:56;;;;;;;54.87;33.83;;;;;;;;;;12542620;28;20033;-73
2022/01/01 17:16:59;;;;;;;24.73;22.33;;;;;;;;;;12546395;28;20318;-73
2022/01/01 17:23:05;;;;;;;23.52;20.70;;;;;;;;;;12552165;28;20055;-73
2022/01/01 17:29:07;;;;;;;29.45;22.35;;;;;;;;;;12552287;28;20029;-74
2022/01/01 17:41:12;;;;;;;20.13;18.13;;;;;;;;;;12552890;28;20474;-72
2022/01/01 17:47:24;;;;;;;21.95;19.80;;;;;;;;;;12534545;28;20047;-72
2022/01/01 17:53:26;;;;;;;22.55;20.35;;;;;;;;;;12550869;28;20406;-73
2022/01/01 17:59:27;;;;;;;24.17;21.88;;;;;;;;;;12552703;28;20060;-72
2022/01/01 18:05:30;;;;;;;40.30;25.88;;;;;;;;;;12550380;28;20044;-72
2022/01/01 18:11:34;;;;;;;25.98;23.23;;;;;;;;;;12550332;28;20041;-72
2022/01/01 18:17:38;;;;;;;25.25;22.88;;;;;;;;;;12550502;28;20302;-73
2022/01/01 18:23:44;;;;;;;21.98;19.65;;;;;;;;;;12549255;28;20041;-72
2022/01/01 18:29:46;;;;;;;28.23;23.70;;;;;;;;;;12549907;28;20032;-72
2022/01/01 18:35:48;;;;;;;42.58;26.77;;;;;;;;;;12531864;28;20048;-73
2022/01/01 18:41:51;;;;;;;27.93;24.00;;;;;;;;;;12532100;28;20029;-72
2022/01/01 18:47:53;;;;;;;32.00;23.05;;;;;;;;;;12548436;28;20048;-73
2022/01/01 18:53:54;;;;;;;22.33;19.98;;;;;;;;;;12547513;28;20049;-74
2022/01/01 19:00:08;;;;;;;20.48;18.38;;;;;;;;;;12531365;28;20033;-73
2022/01/01 19:06:16;;;;;;;24.23;21.85;;;;;;;;;;12547602;28;20033;-72
2022/01/01 19:12:28;;;;;;;20.83;18.92;;;;;;;;;;12547121;28;20045;-74
2022/01/01 19:18:34;;;;;;;21.00;18.80;;;;;;;;;;12530440;28;20053;-73
2022/01/01 19:24:38;;;;;;;27.40;21.90;;;;;;;;;;12530716;28;20076;-74
2022/01/01 19:30:44;;;;;;;18.92;17.20;;;;;;;;;;12546975;28;20397;-74
2022/01/01 19:36:46;;;;;;;18.98;17.08;;;;;;;;;;12547651;28;20580;-75
2022/01/01 19:42:54;;;;;;;20.30;18.43;;;;;;;;;;12528740;28;20045;-74
2022/01/01 19:48:58;;;;;;;20.67;18.90;;;;;;;;;;12545523;28;20318;-74
2022/01/01 19:55:02;;;;;;;16.85;15.32;;;;;;;;;;12544887;28;20056;-73
2022/01/01 20:01:04;;;;;;;18.60;16.70;;;;;;;;;;12545136;28;20036;-72
2022/01/01 20:07:07;;;;;;;18.40;16.85;;;;;;;;;;12528103;28;20058;-73
2022/01/01 20:13:08;;;;;;;20.03;18.10;;;;;;;;;;12546007;28;20036;-73
2022/01/01 20:19:12;;;;;;;19.42;17.52;;;;;;;;;;12545954;28;20470;-73
2022/01/01 20:25:14;;;;;;;19.13;17.40;;;;;;;;;;12544628;28;20455;-72
2022/01/01 20:31:16;;;;;;;18.90;17.17;;;;;;;;;;12527169;28;20509;-73
2022/01/01 20:37:18;;;;;;;21.35;19.23;;;;;;;;;;12526947;28;20049;-73
2022/01/01 20:43:21;;;;;;;19.37;17.57;;;;;;;;;;12526932;28;20387;-72
2022/01/01 20:49:23;;;;;;;19.67;17.88;;;;;;;;;;12542938;28;20284;-71
2022/01/01 20:55:25;;;;;;;22.77;20.40;;;;;;;;;;12525957;28;20071;-72
2022/01/01 21:01:27;;;;;;;22.58;20.35;;;;;;;;;;12542936;28;20609;-72
2022/01/01 21:07:29;;;;;;;20.63;18.73;;;;;;;;;;12543591;28;20044;-72
2022/01/01 21:13:33;;;;;;;21.63;19.67;;;;;;;;;;12543557;28;20048;-72
2022/01/01 21:19:35;;;;;;;15.65;14.15;;;;;;;;;;12543101;28;20041;-72
2022/01/01 21:25:37;;;;;;;23.13;20.93;;;;;;;;;;12543639;28;20048;-73
2022/01/01 21:31:39;;;;;;;18.25;16.63;;;;;;;;;;12543978;28;20044;-73
2022/01/01 21:37:41;;;;;;;21.02;19.10;;;;;;;;;;12541420;28;20486;-73
2022/01/01 21:43:43;;;;;;;22.35;19.23;;;;;;;;;;12541460;28;20029;-73
2022/01/01 21:49:45;;;;;;;18.90;17.23;;;;;;;;;;12542550;28;20039;-73
2022/01/01 21:55:47;;;;;;;21.58;19.58;;;;;;;;;;12542210;28;20053;-73
2022/01/01 22:01:49;;;;;;;22.67;20.27;;;;;;;;;;12543010;28;20024;-73
2022/01/01 22:07:50;;;;;;;17.65;15.43;;;;;;;;;;12550936;28;20047;-73
2022/01/01 22:13:52;;;;;;;16.98;14.60;;;;;;;;;;12550738;28;20037;-71
2022/01/01 22:19:54;;;;;;;26.25;18.90;;;;;;;;;;12549070;28;20037;-72
2022/01/01 22:25:56;;;;;;;27.53;24.87;;;;;;;;;;12551051;28;20041;-71
2022/01/01 22:31:58;;;;;;;23.05;20.00;;;;;;;;;;12548744;28;20044;-71
2022/01/01 22:38:00;;;;;;;14.77;13.25;;;;;;;;;;12549580;28;20037;-72
2022/01/01 22:44:01;;;;;;;21.33;18.92;;;;;;;;;;12549794;28;20076;-71
2022/01/01 22:50:04;;;;;;;15.00;13.48;;;;;;;;;;12548014;28;20037;-72
2022/01/01 22:56:05;;;;;;;15.70;13.97;;;;;;;;;;12547629;28;20067;-72
2022/01/01 23:02:07;;;;;;;29.48;20.88;;;;;;;;;;12548886;28;20040;-71
2022/01/01 23:08:09;;;;;;;31.75;25.83;;;;;;;;;;12547446;28;20033;-71
2022/01/01 23:14:11;;;;;;;37.97;21.45;;;;;;;;;;12547810;28;20037;-71
2022/01/01 23:20:13;;;;;;;21.80;19.67;;;;;;;;;;12546908;28;20116;-71
2022/01/01 23:26:19;;;;;;;23.08;20.08;;;;;;;;;;12548759;28;20041;-71
2022/01/01 23:32:26;;;;;;;18.33;15.55;;;;;;;;;;12529696;28;20033;-71
2022/01/01 23:38:27;;;;;;;18.25;14.55;;;;;;;;;;12547302;28;20044;-72
2022/01/01 23:44:30;;;;;;;23.85;17.63;;;;;;;;;;12546842;28;20033;-71
2022/01/01 23:50:33;;;;;;;17.85;13.98;;;;;;;;;;12528985;28;20041;-72
2022/01/01 23:56:40;;;;;;;19.10;13.10;;;;;;;;;;12546236;28;20057;-71
